sensor_id;sensor_type;location;lat;lon;timestamp;pressure;altitude;pressure_sealevel;temperature;humidity
77454;BME280;66538;53.150;18.160;2024-01-11T00:00:23;102471.45;;;-2.83;100.00
77454;BME280;66538;53.150;18.160;2024-01-11T00:03:12;102474.11;;;-2.83;100.00
77454;BME280;66538;53.150;18.160;2024-01-11T00:05:38;102469.99;;;-2.82;100.00
77454;BME280;66538;53.150;18.160;2024-01-11T00:08:05;102466.61;;;-2.82;100.00
77454;BME280;66538;53.150;18.160;2024-01-11T00:10:32;102460.27;;;-2.82;100.00
77454;BME280;66538;53.150;18.160;2024-01-11T00:12:59;102447.29;;;-2.82;100.00
77454;BME280;66538;53.150;18.160;2024-01-11T00:15:25;102436.36;;;-2.81;100.00
77454;BME280;66538;53.150;18.160;2024-01-11T00:17:52;102449.58;;;-2.80;100.00
77454;BME280;66538;53.150;18.160;2024-01-11T00:20:18;102437.04;;;-2.78;100.00
77454;BME280;66538;53.150;18.160;2024-01-11T00:22:45;102428.90;;;-2.77;100.00
77454;BME280;66538;53.150;18.160;2024-01-11T00:25:11;102439.20;;;-2.75;100.00
77454;BME280;66538;53.150;18.160;2024-01-11T00:27:38;102440.80;;;-2.71;100.00
77454;BME280;66538;53.150;18.160;2024-01-11T00:30:06;102430.05;;;-2.70;100.00
77454;BME280;66538;53.150;18.160;2024-01-11T00:32:32;102423.54;;;-2.67;100.00
77454;BME280;66538;53.150;18.160;2024-01-11T00:34:59;102410.79;;;-2.63;100.00
77454;BME280;66538;53.150;18.160;2024-01-11T00:37:26;102397.39;;;-2.60;100.00
77454;BME280;66538;53.150;18.160;2024-01-11T00:39:52;102388.64;;;-2.58;100.00
77454;BME280;66538;53.150;18.160;2024-01-11T00:42:19;102384.45;;;-2.55;100.00
77454;BME280;66538;53.150;18.160;2024-01-11T00:44:45;102379.91;;;-2.51;100.00
77454;BME280;66538;53.150;18.160;2024-01-11T00:47:12;102385.91;;;-2.49;100.00
77454;BME280;66538;53.150;18.160;2024-01-11T00:49:38;102389.63;;;-2.48;100.00
77454;BME280;66538;53.150;18.160;2024-01-11T00:52:05;102389.19;;;-2.45;100.00
77454;BME280;66538;53.150;18.160;2024-01-11T00:54:32;102390.39;;;-2.42;100.00
77454;BME280;66538;53.150;18.160;2024-01-11T00:56:58;102388.84;;;-2.39;100.00
77454;BME280;66538;53.150;18.160;2024-01-11T00:59:25;102375.64;;;-2.36;100.00
77454;BME280;66538;53.150;18.160;2024-01-11T01:01:51;102374.42;;;-2.35;100.00
77454;BME280;66538;53.150;18.160;2024-01-11T01:04:18;102385.90;;;-2.33;100.00
77454;BME280;66538;53.150;18.160;2024-01-11T01:06:45;102402.45;;;-2.29;100.00
77454;BME280;66538;53.150;18.160;2024-01-11T01:09:11;102408.75;;;-2.27;100.00
77454;BME280;66538;53.150;18.160;2024-01-11T01:11:39;102406.06;;;-2.25;100.00
77454;BME280;66538;53.150;18.160;2024-01-11T01:14:06;102397.98;;;-2.22;100.00
77454;BME280;66538;53.150;18.160;2024-01-11T01:16:33;102395.05;;;-2.21;100.00
77454;BME280;66538;53.150;18.160;2024-01-11T01:18:59;102394.17;;;-2.19;100.00
77454;BME280;66538;53.150;18.160;2024-01-11T01:21:26;102402.31;;;-2.17;100.00
77454;BME280;66538;53.150;18.160;2024-01-11T01:23:52;102405.59;;;-2.16;100.00
77454;BME280;66538;53.150;18.160;2024-01-11T01:26:19;102404.00;;;-2.15;100.00
77454;BME280;66538;53.150;18.160;2024-01-11T01:28:46;102397.53;;;-2.14;100.00
77454;BME280;66538;53.150;18.160;2024-01-11T01:31:13;102394.93;;;-2.12;100.00
77454;BME280;66538;53.150;18.160;2024-01-11T01:33:40;102396.40;;;-2.11;100.00
77454;BME280;66538;53.150;18.160;2024-01-11T01:36:10;102390.30;;;-2.10;100.00
77454;BME280;66538;53.150;18.160;2024-01-11T01:38:37;102390.98;;;-2.10;100.00
77454;BME280;66538;53.150;18.160;2024-01-11T01:41:04;102401.92;;;-2.10;100.00
77454;BME280;66538;53.150;18.160;2024-01-11T01:43:30;102401.73;;;-2.09;100.00
77454;BME280;66538;53.150;18.160;2024-01-11T01:45:57;102403.70;;;-2.08;100.00
77454;BME280;66538;53.150;18.160;2024-01-11T01:48:25;102402.44;;;-2.06;100.00
77454;BME280;66538;53.150;18.160;2024-01-11T01:50:51;102411.77;;;-2.05;100.00
77454;BME280;66538;53.150;18.160;2024-01-11T01:53:19;102414.59;;;-2.03;100.00
77454;BME280;66538;53.150;18.160;2024-01-11T01:55:49;102416.79;;;-2.02;100.00
77454;BME280;66538;53.150;18.160;2024-01-11T01:58:17;102422.68;;;-2.01;100.00
77454;BME280;66538;53.150;18.160;2024-01-11T02:00:47;102422.55;;;-1.99;100.00
77454;BME280;66538;53.150;18.160;2024-01-11T02:03:15;102416.55;;;-1.98;100.00
77454;BME280;66538;53.150;18.160;2024-01-11T02:05:42;102416.32;;;-1.95;100.00
77454;BME280;66538;53.150;18.160;2024-01-11T02:08:12;102417.20;;;-1.93;100.00
77454;BME280;66538;53.150;18.160;2024-01-11T02:10:42;102414.27;;;-1.90;100.00
77454;BME280;66538;53.150;18.160;2024-01-11T02:13:09;102409.15;;;-1.89;100.00
77454;BME280;66538;53.150;18.160;2024-01-11T02:15:36;102412.40;;;-1.86;100.00
77454;BME280;66538;53.150;18.160;2024-01-11T02:18:03;102412.83;;;-1.85;100.00
77454;BME280;66538;53.150;18.160;2024-01-11T02:20:31;102408.92;;;-1.83;100.00
77454;BME280;66538;53.150;18.160;2024-01-11T02:23:03;102407.88;;;-1.81;100.00
77454;BME280;66538;53.150;18.160;2024-01-11T02:25:31;102407.85;;;-1.79;100.00
77454;BME280;66538;53.150;18.160;2024-01-11T02:27:58;102400.86;;;-1.77;100.00
77454;BME280;66538;53.150;18.160;2024-01-11T02:30:24;102392.08;;;-1.76;100.00
77454;BME280;66538;53.150;18.160;2024-01-11T02:32:52;102388.42;;;-1.73;100.00
77454;BME280;66538;53.150;18.160;2024-01-11T02:35:19;102382.25;;;-1.72;100.00
77454;BME280;66538;53.150;18.160;2024-01-11T02:37:46;102379.04;;;-1.70;100.00
77454;BME280;66538;53.150;18.160;2024-01-11T02:40:13;102379.05;;;-1.68;100.00
77454;BME280;66538;53.150;18.160;2024-01-11T02:42:41;102368.06;;;-1.66;100.00
77454;BME280;66538;53.150;18.160;2024-01-11T02:45:08;102370.56;;;-1.65;100.00
77454;BME280;66538;53.150;18.160;2024-01-11T02:47:36;102379.25;;;-1.63;100.00
77454;BME280;66538;53.150;18.160;2024-01-11T02:50:03;102366.64;;;-1.59;100.00
77454;BME280;66538;53.150;18.160;2024-01-11T02:52:29;102365.04;;;-1.58;100.00
77454;BME280;66538;53.150;18.160;2024-01-11T02:54:57;102355.02;;;-1.55;100.00
77454;BME280;66538;53.150;18.160;2024-01-11T02:57:23;102354.20;;;-1.52;100.00
77454;BME280;66538;53.150;18.160;2024-01-11T02:59:51;102355.11;;;-1.49;100.00
77454;BME280;66538;53.150;18.160;2024-01-11T03:02:17;102340.95;;;-1.46;100.00
77454;BME280;66538;53.150;18.160;2024-01-11T03:04:44;102325.92;;;-1.41;100.00
77454;BME280;66538;53.150;18.160;2024-01-11T03:07:11;102325.67;;;-1.38;100.00
77454;BME280;66538;53.150;18.160;2024-01-11T03:09:37;102319.83;;;-1.35;100.00
77454;BME280;66538;53.150;18.160;2024-01-11T03:12:04;102306.46;;;-1.31;100.00
77454;BME280;66538;53.150;18.160;2024-01-11T03:14:32;102307.63;;;-1.29;100.00
77454;BME280;66538;53.150;18.160;2024-01-11T03:17:00;102297.31;;;-1.27;100.00
77454;BME280;66538;53.150;18.160;2024-01-11T03:19:27;102284.20;;;-1.24;100.00
77454;BME280;66538;53.150;18.160;2024-01-11T03:21:54;102288.88;;;-1.21;100.00
77454;BME280;66538;53.150;18.160;2024-01-11T03:24:20;102291.20;;;-1.17;100.00
77454;BME280;66538;53.150;18.160;2024-01-11T03:26:47;102288.46;;;-1.13;100.00
77454;BME280;66538;53.150;18.160;2024-01-11T03:29:14;102289.64;;;-1.11;100.00
77454;BME280;66538;53.150;18.160;2024-01-11T03:31:41;102292.35;;;-1.08;100.00
77454;BME280;66538;53.150;18.160;2024-01-11T03:34:09;102288.20;;;-1.04;100.00
77454;BME280;66538;53.150;18.160;2024-01-11T03:36:36;102296.69;;;-1.02;100.00
77454;BME280;66538;53.150;18.160;2024-01-11T03:39:02;102301.75;;;-0.97;100.00
77454;BME280;66538;53.150;18.160;2024-01-11T03:41:29;102298.64;;;-0.95;100.00
77454;BME280;66538;53.150;18.160;2024-01-11T03:43:56;102282.72;;;-0.94;100.00
77454;BME280;66538;53.150;18.160;2024-01-11T03:46:22;102279.67;;;-0.90;100.00
77454;BME280;66538;53.150;18.160;2024-01-11T03:48:49;102276.08;;;-0.87;100.00
77454;BME280;66538;53.150;18.160;2024-01-11T03:51:16;102268.22;;;-0.86;100.00
77454;BME280;66538;53.150;18.160;2024-01-11T03:53:42;102264.61;;;-0.87;100.00
77454;BME280;66538;53.150;18.160;2024-01-11T03:56:09;102251.16;;;-0.90;100.00
77454;BME280;66538;53.150;18.160;2024-01-11T03:58:36;102239.16;;;-0.87;100.00
77454;BME280;66538;53.150;18.160;2024-01-11T04:01:05;102236.52;;;-0.79;100.00
77454;BME280;66538;53.150;18.160;2024-01-11T04:03:34;102220.53;;;-0.80;100.00
77454;BME280;66538;53.150;18.160;2024-01-11T04:06:00;102213.30;;;-0.74;100.00
77454;BME280;66538;53.150;18.160;2024-01-11T04:08:27;102203.10;;;-0.65;100.00
77454;BME280;66538;53.150;18.160;2024-01-11T04:10:54;102188.73;;;-0.61;100.00
77454;BME280;66538;53.150;18.160;2024-01-11T04:13:20;102178.04;;;-0.60;100.00
77454;BME280;66538;53.150;18.160;2024-01-11T04:15:47;102177.36;;;-0.52;100.00
77454;BME280;66538;53.150;18.160;2024-01-11T04:18:13;102170.19;;;-0.45;100.00
77454;BME280;66538;53.150;18.160;2024-01-11T04:20:40;102182.71;;;-0.39;100.00
77454;BME280;66538;53.150;18.160;2024-01-11T04:23:07;102192.96;;;-0.34;100.00
77454;BME280;66538;53.150;18.160;2024-01-11T04:25:33;102203.58;;;-0.28;100.00
77454;BME280;66538;53.150;18.160;2024-01-11T04:28:00;102204.07;;;-0.23;100.00
77454;BME280;66538;53.150;18.160;2024-01-11T04:30:26;102205.72;;;-0.17;100.00
77454;BME280;66538;53.150;18.160;2024-01-11T04:32:53;102194.36;;;-0.12;100.00
77454;BME280;66538;53.150;18.160;2024-01-11T04:35:19;102181.81;;;-0.07;100.00
77454;BME280;66538;53.150;18.160;2024-01-11T04:37:46;102171.65;;;-0.03;100.00
77454;BME280;66538;53.150;18.160;2024-01-11T04:40:12;102171.10;;;0.02;100.00
77454;BME280;66538;53.150;18.160;2024-01-11T04:42:39;102175.31;;;0.06;100.00
77454;BME280;66538;53.150;18.160;2024-01-11T04:45:06;102176.64;;;0.09;100.00
77454;BME280;66538;53.150;18.160;2024-01-11T04:47:32;102179.24;;;0.16;100.00
77454;BME280;66538;53.150;18.160;2024-01-11T04:49:59;102185.70;;;0.20;100.00
77454;BME280;66538;53.150;18.160;2024-01-11T04:52:25;102184.50;;;0.23;100.00
77454;BME280;66538;53.150;18.160;2024-01-11T04:54:52;102182.96;;;0.28;100.00
77454;BME280;66538;53.150;18.160;2024-01-11T04:57:19;102179.98;;;0.30;100.00
77454;BME280;66538;53.150;18.160;2024-01-11T04:59:45;102173.65;;;0.33;100.00
77454;BME280;66538;53.150;18.160;2024-01-11T05:02:12;102176.55;;;0.35;100.00
77454;BME280;66538;53.150;18.160;2024-01-11T05:04:38;102172.76;;;0.36;100.00
77454;BME280;66538;53.150;18.160;2024-01-11T05:07:05;102184.17;;;0.38;100.00
77454;BME280;66538;53.150;18.160;2024-01-11T05:09:31;102184.38;;;0.40;100.00
77454;BME280;66538;53.150;18.160;2024-01-11T05:11:58;102176.52;;;0.42;100.00
77454;BME280;66538;53.150;18.160;2024-01-11T05:14:24;102177.25;;;0.45;100.00
77454;BME280;66538;53.150;18.160;2024-01-11T05:16:51;102178.63;;;0.47;100.00
77454;BME280;66538;53.150;18.160;2024-01-11T05:19:18;102177.02;;;0.50;100.00
77454;BME280;66538;53.150;18.160;2024-01-11T05:21:45;102168.96;;;0.52;100.00
77454;BME280;66538;53.150;18.160;2024-01-11T05:24:12;102166.63;;;0.56;100.00
77454;BME280;66538;53.150;18.160;2024-01-11T05:26:39;102173.67;;;0.58;100.00
77454;BME280;66538;53.150;18.160;2024-01-11T05:29:05;102168.69;;;0.60;100.00
77454;BME280;66538;53.150;18.160;2024-01-11T05:31:32;102171.77;;;0.62;100.00
77454;BME280;66538;53.150;18.160;2024-01-11T05:33:58;102182.45;;;0.66;100.00
77454;BME280;66538;53.150;18.160;2024-01-11T05:36:25;102175.48;;;0.67;100.00
77454;BME280;66538;53.150;18.160;2024-01-11T05:38:51;102179.13;;;0.67;100.00
77454;BME280;66538;53.150;18.160;2024-01-11T05:41:18;102179.14;;;0.71;100.00
77454;BME280;66538;53.150;18.160;2024-01-11T05:43:44;102168.20;;;0.73;100.00
77454;BME280;66538;53.150;18.160;2024-01-11T05:46:11;102167.77;;;0.77;100.00
77454;BME280;66538;53.150;18.160;2024-01-11T05:48:38;102174.42;;;0.78;100.00
77454;BME280;66538;53.150;18.160;2024-01-11T05:51:04;102169.90;;;0.80;100.00
77454;BME280;66538;53.150;18.160;2024-01-11T05:53:31;102169.40;;;0.82;100.00
77454;BME280;66538;53.150;18.160;2024-01-11T05:56:01;102158.23;;;0.81;100.00
77454;BME280;66538;53.150;18.160;2024-01-11T05:58:29;102151.91;;;0.82;100.00
77454;BME280;66538;53.150;18.160;2024-01-11T06:00:56;102143.34;;;0.84;100.00
77454;BME280;66538;53.150;18.160;2024-01-11T06:03:23;102142.22;;;0.86;100.00
77454;BME280;66538;53.150;18.160;2024-01-11T06:05:50;102141.76;;;0.88;100.00
77454;BME280;66538;53.150;18.160;2024-01-11T06:08:16;102143.91;;;0.91;100.00
77454;BME280;66538;53.150;18.160;2024-01-11T06:10:43;102140.77;;;0.94;100.00
77454;BME280;66538;53.150;18.160;2024-01-11T06:13:10;102137.95;;;0.95;100.00
77454;BME280;66538;53.150;18.160;2024-01-11T06:15:36;102141.06;;;0.98;100.00
77454;BME280;66538;53.150;18.160;2024-01-11T06:18:03;102137.61;;;1.00;100.00
77454;BME280;66538;53.150;18.160;2024-01-11T06:20:31;102136.27;;;1.00;100.00
77454;BME280;66538;53.150;18.160;2024-01-11T06:22:57;102135.92;;;1.02;100.00
77454;BME280;66538;53.150;18.160;2024-01-11T06:25:24;102141.81;;;1.03;100.00
77454;BME280;66538;53.150;18.160;2024-01-11T06:27:50;102150.80;;;1.03;100.00
77454;BME280;66538;53.150;18.160;2024-01-11T06:30:17;102151.81;;;1.03;100.00
77454;BME280;66538;53.150;18.160;2024-01-11T06:32:44;102152.86;;;1.08;100.00
77454;BME280;66538;53.150;18.160;2024-01-11T06:35:10;102152.65;;;1.11;100.00
77454;BME280;66538;53.150;18.160;2024-01-11T06:37:37;102155.64;;;1.16;100.00
77454;BME280;66538;53.150;18.160;2024-01-11T06:40:04;102145.97;;;1.17;100.00
77454;BME280;66538;53.150;18.160;2024-01-11T06:42:31;102133.23;;;1.16;100.00
77454;BME280;66538;53.150;18.160;2024-01-11T06:44:57;102125.88;;;1.18;100.00
77454;BME280;66538;53.150;18.160;2024-01-11T06:47:24;102131.21;;;1.20;100.00
77454;BME280;66538;53.150;18.160;2024-01-11T06:49:51;102130.30;;;1.21;100.00
77454;BME280;66538;53.150;18.160;2024-01-11T06:52:17;102126.73;;;1.23;100.00
77454;BME280;66538;53.150;18.160;2024-01-11T06:54:46;102126.44;;;1.21;100.00
77454;BME280;66538;53.150;18.160;2024-01-11T06:57:12;102130.35;;;1.19;100.00
77454;BME280;66538;53.150;18.160;2024-01-11T06:59:39;102124.58;;;1.18;100.00
77454;BME280;66538;53.150;18.160;2024-01-11T07:02:05;102127.61;;;1.18;100.00
77454;BME280;66538;53.150;18.160;2024-01-11T07:04:32;102130.77;;;1.20;100.00
77454;BME280;66538;53.150;18.160;2024-01-11T07:06:58;102135.55;;;1.21;100.00
77454;BME280;66538;53.150;18.160;2024-01-11T07:09:25;102141.32;;;1.20;100.00
77454;BME280;66538;53.150;18.160;2024-01-11T07:11:52;102126.73;;;1.20;100.00
77454;BME280;66538;53.150;18.160;2024-01-11T07:14:18;102121.69;;;1.20;100.00
77454;BME280;66538;53.150;18.160;2024-01-11T07:16:45;102126.23;;;1.22;100.00
77454;BME280;66538;53.150;18.160;2024-01-11T07:19:12;102123.50;;;1.22;100.00
77454;BME280;66538;53.150;18.160;2024-01-11T07:21:38;102111.02;;;1.20;100.00
77454;BME280;66538;53.150;18.160;2024-01-11T07:24:05;102114.52;;;1.17;100.00
77454;BME280;66538;53.150;18.160;2024-01-11T07:26:32;102115.15;;;1.18;100.00
77454;BME280;66538;53.150;18.160;2024-01-11T07:28:58;102097.98;;;1.17;100.00
77454;BME280;66538;53.150;18.160;2024-01-11T07:31:25;102096.04;;;1.15;100.00
77454;BME280;66538;53.150;18.160;2024-01-11T07:33:52;102097.60;;;1.16;100.00
77454;BME280;66538;53.150;18.160;2024-01-11T07:36:18;102087.92;;;1.15;100.00
77454;BME280;66538;53.150;18.160;2024-01-11T07:38:45;102092.47;;;1.14;100.00
77454;BME280;66538;53.150;18.160;2024-01-11T07:41:12;102095.51;;;1.15;100.00
77454;BME280;66538;53.150;18.160;2024-01-11T07:43:39;102096.69;;;1.19;100.00
77454;BME280;66538;53.150;18.160;2024-01-11T07:46:06;102103.16;;;1.21;100.00
77454;BME280;66538;53.150;18.160;2024-01-11T07:48:34;102113.55;;;1.24;100.00
77454;BME280;66538;53.150;18.160;2024-01-11T07:51:01;102122.25;;;1.27;100.00
77454;BME280;66538;53.150;18.160;2024-01-11T07:53:28;102120.13;;;1.28;100.00
77454;BME280;66538;53.150;18.160;2024-01-11T07:55:55;102113.39;;;1.29;100.00
77454;BME280;66538;53.150;18.160;2024-01-11T07:58:21;102110.30;;;1.34;100.00
77454;BME280;66538;53.150;18.160;2024-01-11T08:00:48;102118.70;;;1.38;100.00
77454;BME280;66538;53.150;18.160;2024-01-11T08:03:15;102119.65;;;1.41;100.00
77454;BME280;66538;53.150;18.160;2024-01-11T08:05:42;102117.77;;;1.43;100.00
77454;BME280;66538;53.150;18.160;2024-01-11T08:08:10;102118.02;;;1.46;100.00
77454;BME280;66538;53.150;18.160;2024-01-11T08:10:37;102111.98;;;1.47;100.00
77454;BME280;66538;53.150;18.160;2024-01-11T08:13:03;102104.27;;;1.49;100.00
77454;BME280;66538;53.150;18.160;2024-01-11T08:15:30;102112.48;;;1.53;100.00
77454;BME280;66538;53.150;18.160;2024-01-11T08:17:57;102119.52;;;1.57;100.00
77454;BME280;66538;53.150;18.160;2024-01-11T08:20:23;102119.21;;;1.60;100.00
77454;BME280;66538;53.150;18.160;2024-01-11T08:22:50;102124.11;;;1.64;100.00
77454;BME280;66538;53.150;18.160;2024-01-11T08:25:16;102122.15;;;1.66;100.00
77454;BME280;66538;53.150;18.160;2024-01-11T08:27:44;102108.73;;;1.65;100.00
77454;BME280;66538;53.150;18.160;2024-01-11T08:30:11;102102.95;;;1.66;100.00
77454;BME280;66538;53.150;18.160;2024-01-11T08:32:39;102103.17;;;1.67;100.00
77454;BME280;66538;53.150;18.160;2024-01-11T08:35:09;102098.40;;;1.70;100.00
77454;BME280;66538;53.150;18.160;2024-01-11T08:37:38;102108.23;;;1.73;100.00
77454;BME280;66538;53.150;18.160;2024-01-11T08:40:06;102114.05;;;1.78;100.00
77454;BME280;66538;53.150;18.160;2024-01-11T08:42:33;102115.80;;;1.81;100.00
77454;BME280;66538;53.150;18.160;2024-01-11T08:44:59;102115.44;;;1.84;100.00
77454;BME280;66538;53.150;18.160;2024-01-11T08:47:34;102127.99;;;1.88;100.00
77454;BME280;66538;53.150;18.160;2024-01-11T08:50:01;102128.81;;;1.90;100.00
77454;BME280;66538;53.150;18.160;2024-01-11T08:52:32;102132.71;;;1.94;100.00
77454;BME280;66538;53.150;18.160;2024-01-11T08:55:00;102134.00;;;1.96;100.00
77454;BME280;66538;53.150;18.160;2024-01-11T08:57:26;102133.55;;;1.97;100.00
77454;BME280;66538;53.150;18.160;2024-01-11T08:59:53;102131.54;;;1.99;100.00
77454;BME280;66538;53.150;18.160;2024-01-11T09:02:21;102134.45;;;2.01;100.00
77454;BME280;66538;53.150;18.160;2024-01-11T09:04:48;102142.91;;;2.04;100.00
77454;BME280;66538;53.150;18.160;2024-01-11T09:07:15;102144.92;;;2.05;100.00
77454;BME280;66538;53.150;18.160;2024-01-11T09:09:42;102153.14;;;2.07;100.00
77454;BME280;66538;53.150;18.160;2024-01-11T09:12:08;102152.90;;;2.07;100.00
77454;BME280;66538;53.150;18.160;2024-01-11T09:14:35;102157.06;;;2.07;100.00
77454;BME280;66538;53.150;18.160;2024-01-11T09:17:02;102156.13;;;2.05;100.00
77454;BME280;66538;53.150;18.160;2024-01-11T09:19:29;102155.00;;;2.07;100.00
77454;BME280;66538;53.150;18.160;2024-01-11T09:21:55;102154.39;;;2.10;100.00
77454;BME280;66538;53.150;18.160;2024-01-11T09:24:22;102149.83;;;2.12;100.00
77454;BME280;66538;53.150;18.160;2024-01-11T09:26:48;102143.72;;;2.12;100.00
77454;BME280;66538;53.150;18.160;2024-01-11T09:29:16;102138.46;;;2.13;100.00
77454;BME280;66538;53.150;18.160;2024-01-11T09:31:43;102144.04;;;2.14;100.00
77454;BME280;66538;53.150;18.160;2024-01-11T09:34:09;102139.84;;;2.13;100.00
77454;BME280;66538;53.150;18.160;2024-01-11T09:36:36;102141.21;;;2.17;100.00
77454;BME280;66538;53.150;18.160;2024-01-11T09:39:05;102138.08;;;2.19;100.00
77454;BME280;66538;53.150;18.160;2024-01-11T09:41:36;102135.14;;;2.21;100.00
77454;BME280;66538;53.150;18.160;2024-01-11T09:44:04;102139.60;;;2.24;100.00
77454;BME280;66538;53.150;18.160;2024-01-11T09:46:31;102138.92;;;2.27;100.00
77454;BME280;66538;53.150;18.160;2024-01-11T09:48:58;102142.65;;;2.28;100.00
77454;BME280;66538;53.150;18.160;2024-01-11T09:51:27;102145.41;;;2.31;100.00
77454;BME280;66538;53.150;18.160;2024-01-11T09:53:55;102131.34;;;2.32;100.00
77454;BME280;66538;53.150;18.160;2024-01-11T09:56:25;102132.66;;;2.37;100.00
77454;BME280;66538;53.150;18.160;2024-01-11T09:58:53;102133.91;;;2.40;100.00
77454;BME280;66538;53.150;18.160;2024-01-11T10:01:20;102130.66;;;2.44;100.00
77454;BME280;66538;53.150;18.160;2024-01-11T10:03:48;102128.82;;;2.44;100.00
77454;BME280;66538;53.150;18.160;2024-01-11T10:06:15;102120.65;;;2.44;100.00
77454;BME280;66538;53.150;18.160;2024-01-11T10:08:44;102119.96;;;2.45;100.00
77454;BME280;66538;53.150;18.160;2024-01-11T10:11:10;102119.31;;;2.44;100.00
77454;BME280;66538;53.150;18.160;2024-01-11T10:13:37;102134.68;;;2.47;100.00
77454;BME280;66538;53.150;18.160;2024-01-11T10:16:09;102128.46;;;2.50;100.00
77454;BME280;66538;53.150;18.160;2024-01-11T10:18:36;102130.19;;;2.52;100.00
77454;BME280;66538;53.150;18.160;2024-01-11T10:21:03;102128.46;;;2.53;100.00
77454;BME280;66538;53.150;18.160;2024-01-11T10:23:33;102122.45;;;2.55;100.00
77454;BME280;66538;53.150;18.160;2024-01-11T10:26:00;102124.65;;;2.55;100.00
77454;BME280;66538;53.150;18.160;2024-01-11T10:28:27;102121.09;;;2.56;100.00
77454;BME280;66538;53.150;18.160;2024-01-11T10:30:54;102123.68;;;2.55;100.00
77454;BME280;66538;53.150;18.160;2024-01-11T10:33:21;102125.42;;;2.51;100.00
77454;BME280;66538;53.150;18.160;2024-01-11T10:35:49;102120.77;;;2.48;100.00
77454;BME280;66538;53.150;18.160;2024-01-11T10:38:17;102115.42;;;2.47;100.00
77454;BME280;66538;53.150;18.160;2024-01-11T10:40:44;102113.95;;;2.47;100.00
77454;BME280;66538;53.150;18.160;2024-01-11T10:43:11;102112.73;;;2.50;100.00
77454;BME280;66538;53.150;18.160;2024-01-11T10:45:39;102112.23;;;2.51;100.00
77454;BME280;66538;53.150;18.160;2024-01-11T10:48:25;102115.31;;;2.52;100.00
77454;BME280;66538;53.150;18.160;2024-01-11T10:50:55;102117.33;;;2.52;100.00
77454;BME280;66538;53.150;18.160;2024-01-11T10:53:28;102115.75;;;2.54;100.00
77454;BME280;66538;53.150;18.160;2024-01-11T10:55:59;102123.13;;;2.59;100.00
77454;BME280;66538;53.150;18.160;2024-01-11T10:58:26;102121.44;;;2.59;100.00
77454;BME280;66538;53.150;18.160;2024-01-11T11:00:54;102122.19;;;2.60;100.00
77454;BME280;66538;53.150;18.160;2024-01-11T11:03:22;102111.17;;;2.60;100.00
77454;BME280;66538;53.150;18.160;2024-01-11T11:05:50;102105.58;;;2.60;100.00
77454;BME280;66538;53.150;18.160;2024-01-11T11:08:19;102101.23;;;2.62;100.00
77454;BME280;66538;53.150;18.160;2024-01-11T11:10:46;102088.66;;;2.63;100.00
77454;BME280;66538;53.150;18.160;2024-01-11T11:13:14;102077.27;;;2.65;100.00
77454;BME280;66538;53.150;18.160;2024-01-11T11:15:45;102077.05;;;2.67;100.00
77454;BME280;66538;53.150;18.160;2024-01-11T11:18:13;102074.48;;;2.69;100.00
77454;BME280;66538;53.150;18.160;2024-01-11T11:20:40;102076.19;;;2.73;100.00
77454;BME280;66538;53.150;18.160;2024-01-11T11:23:11;102073.52;;;2.74;100.00
77454;BME280;66538;53.150;18.160;2024-01-11T11:25:40;102070.64;;;2.80;100.00
77454;BME280;66538;53.150;18.160;2024-01-11T11:28:07;102066.11;;;2.80;100.00
77454;BME280;66538;53.150;18.160;2024-01-11T11:30:37;102063.70;;;2.82;100.00
77454;BME280;66538;53.150;18.160;2024-01-11T11:33:26;102058.86;;;2.84;100.00
77454;BME280;66538;53.150;18.160;2024-01-11T11:35:54;102063.06;;;2.85;100.00
77454;BME280;66538;53.150;18.160;2024-01-11T11:38:27;102064.04;;;2.86;100.00
77454;BME280;66538;53.150;18.160;2024-01-11T11:40:59;102063.03;;;2.85;100.00
77454;BME280;66538;53.150;18.160;2024-01-11T11:43:27;102064.27;;;2.84;100.00
77454;BME280;66538;53.150;18.160;2024-01-11T11:45:54;102066.86;;;2.82;100.00
77454;BME280;66538;53.150;18.160;2024-01-11T11:51:15;102068.38;;;2.90;100.00
77454;BME280;66538;53.150;18.160;2024-01-11T11:53:42;102063.75;;;2.95;100.00
77454;BME280;66538;53.150;18.160;2024-01-11T11:56:10;102057.71;;;2.95;100.00
77454;BME280;66538;53.150;18.160;2024-01-11T11:58:38;102053.11;;;2.94;100.00
77454;BME280;66538;53.150;18.160;2024-01-11T12:01:09;102048.94;;;2.92;100.00
77454;BME280;66538;53.150;18.160;2024-01-11T12:03:38;102051.11;;;2.90;100.00
77454;BME280;66538;53.150;18.160;2024-01-11T12:06:07;102044.86;;;2.87;100.00
77454;BME280;66538;53.150;18.160;2024-01-11T12:08:35;102039.77;;;2.88;100.00
77454;BME280;66538;53.150;18.160;2024-01-11T12:11:03;102042.41;;;2.88;100.00
77454;BME280;66538;53.150;18.160;2024-01-11T12:13:30;102040.48;;;2.88;100.00
77454;BME280;66538;53.150;18.160;2024-01-11T12:15:57;102039.14;;;2.90;100.00
77454;BME280;66538;53.150;18.160;2024-01-11T12:18:24;102037.91;;;2.89;100.00
77454;BME280;66538;53.150;18.160;2024-01-11T12:20:50;102022.09;;;2.86;100.00
77454;BME280;66538;53.150;18.160;2024-01-11T12:23:19;102028.36;;;2.89;100.00
77454;BME280;66538;53.150;18.160;2024-01-11T12:25:47;102021.58;;;2.92;100.00
77454;BME280;66538;53.150;18.160;2024-01-11T12:28:14;102015.65;;;2.99;100.00
77454;BME280;66538;53.150;18.160;2024-01-11T12:30:41;102025.78;;;3.04;100.00
77454;BME280;66538;53.150;18.160;2024-01-11T12:33:09;102026.35;;;3.07;100.00
77454;BME280;66538;53.150;18.160;2024-01-11T12:35:36;102038.75;;;3.12;100.00
77454;BME280;66538;53.150;18.160;2024-01-11T12:38:05;102045.75;;;3.14;100.00